Terminal Aerodrome Forecast
Issued by NWS

Home | Current Version | Previous Version | Text Only | Print | Product List | Glossary On
Versions: 1 2 3 4 5 6 7 8 9 10 11 12 13 14 15 16 17 18 19 20 21 22 23 24 25
000
FTUS46 KMFR 210236 AAC
TAFRBG
TAF AMD
KRBG 210236Z 2103/2124 34003KT 3SM -RA BR BKN010 OVC025
     FM210400 VRB03KT 5SM -RA BR BKN020 BKN050 OVC090
     FM210600 17003KT 5SM -RA BR SCT007 BKN015 OVC040
     FM211200 00000KT 3SM BR BKN003 BKN090 OVC120
     FM211800 17003KT P6SM SCT035 BKN060 OVC090 WS020/18045KT=

USA.gov is the U.S. government's official web portal to all federal, state and local government web resources and services.